createdAt,value
2023-02-28T00:00:03.130Z,8.00
2023-02-28T00:02:31.652Z,8.67
2023-02-28T00:04:58.402Z,9.00
2023-02-28T00:07:26.520Z,7.33
2023-02-28T00:09:53.355Z,7.33
2023-02-28T00:12:20.431Z,8.00
2023-02-28T00:14:47.237Z,9.33
2023-02-28T00:17:14.046Z,7.67
2023-02-28T00:19:41.028Z,8.00
2023-02-28T00:22:07.857Z,7.33
2023-02-28T00:24:36.217Z,10.33
2023-02-28T00:27:03.368Z,7.33
2023-02-28T00:29:30.114Z,7.00
2023-02-28T00:31:56.970Z,6.00
2023-02-28T00:34:23.947Z,9.00
2023-02-28T00:36:50.738Z,8.00
2023-02-28T00:39:18.109Z,8.33
2023-02-28T00:41:46.282Z,8.33
2023-02-28T00:44:14.557Z,7.00
2023-02-28T00:46:41.382Z,3.67
2023-02-28T00:49:08.178Z,9.00
2023-02-28T00:51:36.260Z,9.67
2023-02-28T00:54:03.196Z,11.00
2023-02-28T00:56:29.946Z,7.33
2023-02-28T00:58:58.610Z,8.67
2023-02-28T01:01:25.525Z,8.00
2023-02-28T01:03:52.362Z,7.00
2023-02-28T01:06:19.374Z,8.00
2023-02-28T01:08:46.293Z,6.67
2023-02-28T01:11:19.045Z,8.33
2023-02-28T01:13:49.069Z,11.00
2023-02-28T01:16:17.533Z,9.00
2023-02-28T01:18:46.104Z,7.33
2023-02-28T01:21:16.077Z,9.33
2023-02-28T01:23:44.180Z,8.00
2023-02-28T01:26:14.172Z,11.67
2023-02-28T01:28:41.923Z,11.33
2023-02-28T01:31:13.464Z,7.00
2023-02-28T01:33:42.286Z,7.67
2023-02-28T01:36:13.972Z,12.67
2023-02-28T01:38:41.535Z,7.00
2023-02-28T01:41:15.165Z,10.00
2023-02-28T01:44:00.068Z,8.33
2023-02-28T01:46:27.157Z,13.00
2023-02-28T01:49:06.220Z,13.33
2023-02-28T01:51:41.943Z,11.33
2023-02-28T01:54:15.930Z,13.00
2023-02-28T01:56:50.081Z,16.67
2023-02-28T01:59:25.579Z,14.67
2023-02-28T02:01:53.921Z,7.00
2023-02-28T02:04:26.695Z,12.00
2023-02-28T02:06:53.900Z,12.67
2023-02-28T02:09:20.733Z,11.33
2023-02-28T02:11:48.333Z,10.67
2023-02-28T02:14:49.177Z,11.33
2023-02-28T02:17:30.018Z,14.00
2023-02-28T02:20:45.878Z,13.00
2023-02-28T02:23:52.583Z,15.33
2023-02-28T02:26:59.278Z,5.67
2023-02-28T02:30:37.687Z,13.33
2023-02-28T02:33:29.739Z,10.67
2023-02-28T02:36:08.138Z,18.00
2023-02-28T02:38:45.444Z,13.33
2023-02-28T02:41:24.617Z,16.33
2023-02-28T02:43:59.236Z,12.67
2023-02-28T02:46:34.014Z,15.00
2023-02-28T02:49:06.240Z,11.33
2023-02-28T02:51:38.663Z,18.33
2023-02-28T02:54:15.519Z,14.67
2023-02-28T02:56:45.983Z,9.33
2023-02-28T02:59:19.793Z,14.33
2023-02-28T03:01:46.858Z,12.67
2023-02-28T03:04:20.566Z,10.67
2023-02-28T03:06:51.442Z,8.00
2023-02-28T03:09:18.347Z,7.00
2023-02-28T03:11:46.122Z,14.00
2023-02-28T03:14:38.926Z,7.33
2023-02-28T03:17:38.895Z,12.33
2023-02-28T03:20:22.255Z,26.50
2023-02-28T03:23:08.907Z,31.50
2023-02-28T03:25:53.044Z,13.00
2023-02-28T03:28:32.742Z,10.33
2023-02-28T03:31:11.281Z,15.00
2023-02-28T03:33:45.167Z,13.33
2023-02-28T03:36:19.160Z,15.00
2023-02-28T03:38:55.286Z,14.00
2023-02-28T03:41:26.617Z,20.00
2023-02-28T03:43:59.144Z,14.67
2023-02-28T03:46:32.576Z,9.67
2023-02-28T03:49:12.064Z,18.00
2023-02-28T03:51:44.344Z,8.00
2023-02-28T03:54:19.161Z,13.00
2023-02-28T03:56:54.718Z,10.67
2023-02-28T03:59:29.568Z,9.67
2023-02-28T04:01:58.659Z,14.67
2023-02-28T04:04:28.188Z,14.33
2023-02-28T04:07:04.526Z,12.00
2023-02-28T04:09:33.285Z,12.33
2023-02-28T04:12:00.358Z,12.00
2023-02-28T04:14:27.827Z,14.67
2023-02-28T04:16:54.900Z,12.33
2023-02-28T04:19:21.786Z,11.00
2023-02-28T04:21:51.266Z,14.00
2023-02-28T04:24:21.788Z,17.33
2023-02-28T04:26:53.234Z,20.00
2023-02-28T04:29:22.900Z,12.33
2023-02-28T04:31:50.711Z,29.75
2023-02-28T04:34:17.695Z,32.25
2023-02-28T04:36:44.455Z,6.00
2023-02-28T04:39:11.253Z,12.67
2023-02-28T04:41:38.661Z,11.00
2023-02-28T04:44:06.915Z,15.00
2023-02-28T04:46:33.855Z,18.33
2023-02-28T04:49:00.747Z,13.00
2023-02-28T04:51:28.068Z,17.33
2023-02-28T04:53:55.979Z,13.67
2023-02-28T04:56:24.315Z,17.33
2023-02-28T04:58:51.360Z,13.00
2023-02-28T05:01:26.627Z,16.00
2023-02-28T05:03:55.804Z,12.67
2023-02-28T05:06:25.073Z,18.33
2023-02-28T05:08:52.950Z,13.67
2023-02-28T05:11:24.032Z,11.33
2023-02-28T05:13:52.934Z,10.33
2023-02-28T05:16:22.126Z,15.00
2023-02-28T05:18:49.040Z,12.00
2023-02-28T05:21:29.610Z,10.67
2023-02-28T05:23:58.628Z,13.00
2023-02-28T05:26:26.850Z,9.00
2023-02-28T05:28:53.796Z,11.00
2023-02-28T05:31:22.298Z,8.67
2023-02-28T05:33:49.235Z,10.00
2023-02-28T05:36:16.128Z,12.67
2023-02-28T05:38:42.922Z,14.67
2023-02-28T05:41:11.546Z,9.00
2023-02-28T05:43:39.013Z,12.00
2023-02-28T05:46:07.323Z,12.00
2023-02-28T05:48:37.866Z,10.67
2023-02-28T05:51:05.847Z,12.00
2023-02-28T05:53:33.804Z,9.33
2023-02-28T05:56:00.747Z,12.00
2023-02-28T05:58:28.676Z,13.00
2023-02-28T06:00:55.626Z,15.00
2023-02-28T06:03:22.526Z,12.00
2023-02-28T06:05:50.906Z,12.33
2023-02-28T06:08:17.674Z,10.67
2023-02-28T06:10:44.454Z,10.67
2023-02-28T06:13:11.432Z,14.00
2023-02-28T06:15:38.297Z,17.33
2023-02-28T06:18:05.591Z,12.00
2023-02-28T06:20:32.389Z,15.00
2023-02-28T06:23:01.767Z,18.00
2023-02-28T06:25:29.323Z,15.00
2023-02-28T06:27:56.850Z,13.33
2023-02-28T06:30:23.822Z,13.00
2023-02-28T06:32:50.757Z,9.67
2023-02-28T06:35:17.840Z,12.00
2023-02-28T06:37:44.716Z,14.67
2023-02-28T06:40:14.135Z,11.33
2023-02-28T06:42:41.139Z,11.67
2023-02-28T06:45:09.639Z,12.00
2023-02-28T06:47:37.249Z,14.00
2023-02-28T06:50:06.205Z,11.33
2023-02-28T06:52:33.084Z,9.67
2023-02-28T06:55:00.727Z,12.67
2023-02-28T06:57:32.463Z,12.67
2023-02-28T06:59:59.756Z,14.00
2023-02-28T07:02:27.072Z,15.33
2023-02-28T07:04:54.293Z,12.67
2023-02-28T07:07:21.787Z,11.67
2023-02-28T07:09:48.716Z,13.00
2023-02-28T07:12:15.772Z,14.33
2023-02-28T07:14:43.924Z,16.00
2023-02-28T07:17:11.765Z,15.67
2023-02-28T07:19:39.013Z,14.00
2023-02-28T07:22:06.378Z,12.67
2023-02-28T07:24:33.387Z,13.33
2023-02-28T07:27:00.550Z,20.00
2023-02-28T07:29:28.000Z,12.33
2023-02-28T07:31:56.530Z,12.00
2023-02-28T07:34:23.567Z,8.25
2023-02-28T07:36:54.052Z,14.00
2023-02-28T07:39:21.651Z,13.00
2023-02-28T07:41:48.935Z,14.25
2023-02-28T07:44:16.202Z,10.67
2023-02-28T07:46:43.343Z,16.50
2023-02-28T07:49:11.662Z,9.50
2023-02-28T07:51:44.139Z,15.75
2023-02-28T07:54:11.075Z,7.50
2023-02-28T07:56:37.833Z,26.00
2023-02-28T07:59:05.077Z,9.50
2023-02-28T08:01:32.204Z,9.00
2023-02-28T08:03:59.297Z,11.75
2023-02-28T08:06:27.692Z,12.50
2023-02-28T08:08:54.927Z,10.00
2023-02-28T08:11:21.780Z,9.00
2023-02-28T08:13:48.615Z,9.50
2023-02-28T08:16:15.975Z,13.50
2023-02-28T08:18:42.776Z,15.25
2023-02-28T08:21:11.286Z,9.25
2023-02-28T08:23:40.065Z,17.25
2023-02-28T08:26:07.393Z,13.75
2023-02-28T08:28:34.474Z,15.75
2023-02-28T08:31:01.816Z,10.50
2023-02-28T08:33:28.955Z,17.25
2023-02-28T08:35:56.243Z,11.50
2023-02-28T08:38:24.281Z,16.75
2023-02-28T08:40:59.504Z,20.75
2023-02-28T08:43:26.492Z,17.00
2023-02-28T08:45:53.623Z,14.25
2023-02-28T08:48:20.476Z,18.75
2023-02-28T08:51:06.859Z,16.50
2023-02-28T08:53:34.914Z,16.75
2023-02-28T08:56:06.981Z,15.50
2023-02-28T08:58:34.318Z,14.00
2023-02-28T09:01:01.759Z,20.00
2023-02-28T09:03:28.541Z,16.33
2023-02-28T09:05:57.849Z,18.67
2023-02-28T09:08:26.324Z,19.33
2023-02-28T09:10:53.636Z,11.00
2023-02-28T09:13:22.017Z,13.75
2023-02-28T09:15:48.801Z,19.00
2023-02-28T09:18:16.418Z,16.67
2023-02-28T09:20:44.397Z,19.67
2023-02-28T09:23:13.343Z,14.00
2023-02-28T09:25:47.408Z,17.33
2023-02-28T09:28:14.930Z,19.00
2023-02-28T09:30:44.827Z,18.67
2023-02-28T09:33:11.854Z,15.25
2023-02-28T09:35:38.772Z,18.75
2023-02-28T09:38:10.578Z,15.25
2023-02-28T09:40:49.807Z,18.25
2023-02-28T09:43:31.608Z,12.25
2023-02-28T09:46:08.061Z,18.00
2023-02-28T09:48:42.240Z,16.25
2023-02-28T09:51:31.496Z,19.75
2023-02-28T09:54:01.889Z,9.25
2023-02-28T09:56:36.971Z,15.25
2023-02-28T09:59:14.817Z,15.25
2023-02-28T10:01:58.151Z,16.33
2023-02-28T10:04:44.444Z,19.00
2023-02-28T10:07:46.691Z,15.33
2023-02-28T10:10:24.974Z,16.33
2023-02-28T10:12:57.032Z,18.33
2023-02-28T10:15:30.934Z,19.67
2023-02-28T10:18:09.335Z,21.00
2023-02-28T10:20:41.665Z,23.33
2023-02-28T10:23:18.370Z,19.00
2023-02-28T10:25:54.857Z,18.00
2023-02-28T10:28:21.689Z,24.00
2023-02-28T10:30:51.768Z,20.00
2023-02-28T10:33:25.387Z,20.00
2023-02-28T10:35:53.747Z,18.33
2023-02-28T10:38:24.065Z,22.33
2023-02-28T10:40:51.952Z,18.33
2023-02-28T10:43:24.220Z,18.75
2023-02-28T10:46:00.744Z,17.50
2023-02-28T10:48:36.815Z,12.00
2023-02-28T10:51:06.619Z,19.75
2023-02-28T10:53:57.616Z,14.75
2023-02-28T10:56:27.769Z,16.50
2023-02-28T10:58:57.817Z,13.00
2023-02-28T11:01:36.410Z,16.75
2023-02-28T11:04:18.549Z,20.00
2023-02-28T11:06:46.367Z,20.50
2023-02-28T11:09:25.847Z,9.75
2023-02-28T11:11:52.975Z,20.50
2023-02-28T11:14:26.186Z,17.25
2023-02-28T11:16:55.541Z,10.50
2023-02-28T11:19:29.477Z,12.50
2023-02-28T11:22:02.614Z,9.00
2023-02-28T11:24:36.346Z,16.00
2023-02-28T11:27:04.093Z,12.25
2023-02-28T11:29:33.911Z,13.50
2023-02-28T11:32:13.985Z,15.25
2023-02-28T11:34:44.764Z,14.00
2023-02-28T11:37:16.233Z,18.00
2023-02-28T11:39:44.441Z,16.50
2023-02-28T11:42:50.767Z,11.00
2023-02-28T11:45:43.591Z,12.50
2023-02-28T11:48:22.499Z,18.00
2023-02-28T11:51:16.199Z,18.00
2023-02-28T11:54:12.643Z,22.00
2023-02-28T11:56:45.516Z,12.75
2023-02-28T11:59:38.850Z,16.00
2023-02-28T12:02:24.400Z,16.50
2023-02-28T12:05:20.116Z,20.25
2023-02-28T12:08:05.048Z,17.75
2023-02-28T12:10:45.333Z,18.75
2023-02-28T12:13:25.069Z,17.00
2023-02-28T12:16:18.554Z,18.50
2023-02-28T12:19:07.453Z,19.00
2023-02-28T12:21:58.949Z,19.00
2023-02-28T12:24:59.750Z,20.00
2023-02-28T12:27:33.924Z,20.25
2023-02-28T12:30:14.303Z,19.25
2023-02-28T12:32:47.868Z,13.00
2023-02-28T12:35:22.870Z,24.25
2023-02-28T12:37:59.104Z,14.25
2023-02-28T12:40:44.448Z,20.50
2023-02-28T12:43:17.865Z,14.50
2023-02-28T12:45:51.846Z,13.50
2023-02-28T12:48:27.204Z,19.50
2023-02-28T12:50:55.424Z,13.00
2023-02-28T12:53:34.348Z,18.75
2023-02-28T12:56:17.910Z,15.00
2023-02-28T12:58:51.964Z,12.75
2023-02-28T13:01:46.914Z,16.50
2023-02-28T13:05:48.034Z,23.00
2023-02-28T13:09:04.537Z,25.25
2023-02-28T13:11:41.058Z,18.50
2023-02-28T13:14:24.145Z,21.00
2023-02-28T13:17:19.067Z,20.75
2023-02-28T13:19:58.338Z,22.25
2023-02-28T13:22:41.430Z,20.25
2023-02-28T13:25:52.656Z,25.25
2023-02-28T13:29:29.712Z,23.75
2023-02-28T13:32:33.896Z,19.75
2023-02-28T13:35:44.815Z,22.25
2023-02-28T13:38:39.348Z,22.00
2023-02-28T13:41:44.415Z,18.25
2023-02-28T13:44:14.346Z,25.00
2023-02-28T13:47:24.094Z,20.00
2023-02-28T13:49:54.006Z,20.25
2023-02-28T13:52:24.995Z,21.00
2023-02-28T13:55:25.011Z,12.75
2023-02-28T13:58:11.412Z,23.50
2023-02-28T14:01:04.474Z,18.25
2023-02-28T14:03:56.269Z,20.75
2023-02-28T14:06:30.537Z,22.75
2023-02-28T14:09:02.147Z,24.50
2023-02-28T14:11:34.013Z,16.50
2023-02-28T14:14:03.269Z,22.00
2023-02-28T14:16:41.960Z,15.75
2023-02-28T14:19:15.472Z,18.00
2023-02-28T14:22:15.732Z,26.50
2023-02-28T14:25:15.737Z,24.50
2023-02-28T14:27:57.962Z,24.50
2023-02-28T14:30:56.314Z,21.25
2023-02-28T14:33:40.513Z,19.25
2023-02-28T14:36:18.391Z,20.75
2023-02-28T14:38:52.190Z,22.75
2023-02-28T14:41:30.127Z,18.50
2023-02-28T14:43:59.953Z,20.75
2023-02-28T14:46:36.816Z,14.50
2023-02-28T14:49:06.473Z,17.00
2023-02-28T14:51:33.554Z,20.50
2023-02-28T14:54:04.627Z,15.50
2023-02-28T14:56:37.330Z,8.75
2023-02-28T14:59:06.103Z,23.75
2023-02-28T15:01:33.023Z,19.75
2023-02-28T15:04:06.628Z,21.75
2023-02-28T15:06:34.332Z,18.00
2023-02-28T15:09:14.581Z,22.75
2023-02-28T15:11:42.690Z,13.00
2023-02-28T15:14:19.668Z,10.00
2023-02-28T15:16:58.974Z,22.25
2023-02-28T15:19:30.598Z,22.25
2023-02-28T15:22:04.581Z,22.25
2023-02-28T15:24:43.676Z,14.50
2023-02-28T15:27:20.341Z,22.50
2023-02-28T15:29:51.880Z,19.25
2023-02-28T15:32:29.811Z,9.00
2023-02-28T15:34:59.676Z,21.00
2023-02-28T15:37:34.435Z,16.50
2023-02-28T15:40:14.950Z,15.00
2023-02-28T15:42:42.503Z,20.75
2023-02-28T15:45:35.576Z,23.25
2023-02-28T15:48:12.451Z,17.50
2023-02-28T15:53:53.895Z,21.25
2023-02-28T15:56:56.206Z,12.00
2023-02-28T15:59:27.256Z,21.50
2023-02-28T16:02:22.417Z,13.25
2023-02-28T16:05:20.893Z,20.25
2023-02-28T16:07:48.435Z,22.50
2023-02-28T16:10:16.059Z,22.00
2023-02-28T16:12:44.353Z,15.25
2023-02-28T16:15:22.663Z,20.25
2023-02-28T16:17:50.062Z,18.75
2023-02-28T16:20:19.427Z,19.75
2023-02-28T16:22:46.240Z,20.25
2023-02-28T16:25:14.851Z,12.25
2023-02-28T16:27:49.358Z,18.75
2023-02-28T16:30:22.719Z,20.50
2023-02-28T16:32:50.707Z,15.75
2023-02-28T16:35:19.112Z,18.50
2023-02-28T16:37:46.526Z,20.25
2023-02-28T16:40:16.751Z,12.00
2023-02-28T16:42:47.655Z,22.25
2023-02-28T16:45:21.894Z,8.50
2023-02-28T16:47:50.003Z,22.25
2023-02-28T16:50:20.294Z,21.00
2023-02-28T16:52:48.046Z,22.50
2023-02-28T16:55:15.423Z,19.50
2023-02-28T16:57:46.910Z,20.50
2023-02-28T17:00:15.085Z,16.25
2023-02-28T17:02:43.083Z,16.50
2023-02-28T17:05:12.873Z,19.50
2023-02-28T17:07:39.961Z,20.50
2023-02-28T17:10:16.258Z,21.00
2023-02-28T17:12:44.831Z,21.75
2023-02-28T17:15:14.001Z,19.50
2023-02-28T17:17:42.501Z,23.50
2023-02-28T17:20:14.194Z,26.00
2023-02-28T17:22:42.158Z,25.25
2023-02-28T17:25:11.263Z,23.67
2023-02-28T17:27:38.634Z,19.75
2023-02-28T17:30:17.739Z,20.25
2023-02-28T17:32:44.858Z,19.00
2023-02-28T17:35:13.172Z,24.25
2023-02-28T17:37:40.782Z,21.25
2023-02-28T17:40:14.389Z,24.50
2023-02-28T17:42:41.162Z,24.75
2023-02-28T17:45:10.919Z,20.00
2023-02-28T17:47:38.386Z,22.00
2023-02-28T17:50:06.513Z,19.75
2023-02-28T17:52:33.341Z,21.75
2023-02-28T17:55:00.149Z,24.75
2023-02-28T17:57:27.011Z,23.00
2023-02-28T17:59:53.847Z,19.50
2023-02-28T18:02:22.256Z,23.25
2023-02-28T18:04:49.968Z,24.25
2023-02-28T18:07:16.837Z,21.50
2023-02-28T18:09:43.711Z,19.25
2023-02-28T18:12:10.644Z,26.25
2023-02-28T18:14:37.468Z,20.00
2023-02-28T18:17:04.443Z,24.00
2023-02-28T18:19:32.774Z,22.00
2023-02-28T18:21:59.559Z,24.33
2023-02-28T18:24:26.606Z,22.33
2023-02-28T18:26:53.491Z,21.00
2023-02-28T18:29:23.680Z,24.00
2023-02-28T18:31:50.915Z,20.67
2023-02-28T18:34:18.059Z,24.33
2023-02-28T18:36:46.335Z,20.33
2023-02-28T18:39:13.123Z,23.33
2023-02-28T18:41:40.338Z,21.00
2023-02-28T18:44:19.106Z,24.00
2023-02-28T18:46:47.097Z,19.50
2023-02-28T18:49:13.963Z,25.67
2023-02-28T18:51:41.292Z,22.00
2023-02-28T18:54:09.622Z,23.50
2023-02-28T18:56:36.538Z,24.00
2023-02-28T18:59:03.651Z,23.75
2023-02-28T19:01:30.986Z,22.75
2023-02-28T19:04:00.371Z,24.00
2023-02-28T19:06:28.294Z,22.33
2023-02-28T19:08:56.644Z,17.67
2023-02-28T19:11:26.546Z,26.33
2023-02-28T19:13:53.489Z,24.33
2023-02-28T19:16:22.405Z,25.67
2023-02-28T19:18:49.571Z,24.00
2023-02-28T19:21:21.156Z,24.00
2023-02-28T19:23:48.925Z,20.33
2023-02-28T19:26:18.688Z,23.33
2023-02-28T19:28:47.456Z,25.00
2023-02-28T19:31:23.475Z,24.67
2023-02-28T19:33:51.428Z,27.67
2023-02-28T19:36:19.194Z,25.00
2023-02-28T19:38:46.087Z,25.00
2023-02-28T19:41:16.141Z,24.00
2023-02-28T19:43:44.844Z,22.67
2023-02-28T19:46:14.246Z,22.67
2023-02-28T19:48:41.586Z,25.33
2023-02-28T19:51:11.574Z,21.00
2023-02-28T19:53:41.423Z,21.67
2023-02-28T19:56:09.632Z,24.33
2023-02-28T19:58:37.909Z,22.00
2023-02-28T20:01:10.595Z,21.00
2023-02-28T20:03:38.957Z,26.33
2023-02-28T20:06:10.325Z,21.00
2023-02-28T20:08:38.477Z,25.33
2023-02-28T20:11:08.002Z,18.67
2023-02-28T20:13:35.778Z,22.00
2023-02-28T20:16:06.556Z,20.67
2023-02-28T20:18:33.712Z,21.00
2023-02-28T20:21:02.091Z,19.00
2023-02-28T20:23:29.284Z,21.00
2023-02-28T20:25:59.567Z,21.67
2023-02-28T20:28:26.969Z,23.00
2023-02-28T20:30:53.805Z,22.00
2023-02-28T20:33:20.683Z,24.67
2023-02-28T20:35:47.659Z,34.67
2023-02-28T20:38:15.915Z,23.67
2023-02-28T20:40:43.006Z,22.00
2023-02-28T20:43:09.861Z,22.67
2023-02-28T20:45:36.790Z,25.33
2023-02-28T20:48:03.633Z,24.00
2023-02-28T20:50:30.517Z,22.00
2023-02-28T20:52:57.335Z,21.33
2023-02-28T20:55:25.585Z,24.00
2023-02-28T20:57:52.343Z,17.00
2023-02-28T21:00:20.060Z,25.33
2023-02-28T21:02:47.178Z,27.33
2023-02-28T21:05:14.204Z,27.67
2023-02-28T21:07:41.033Z,31.00
2023-02-28T21:10:09.683Z,30.33
2023-02-28T21:12:38.940Z,29.33
2023-02-28T21:15:07.485Z,30.00
2023-02-28T21:17:34.318Z,25.00
2023-02-28T21:20:02.210Z,19.67
2023-02-28T21:22:29.036Z,22.33
2023-02-28T21:24:55.844Z,27.33
2023-02-28T21:27:22.641Z,21.67
2023-02-28T21:29:50.737Z,26.33
2023-02-28T21:32:17.548Z,20.33
2023-02-28T21:34:44.792Z,22.33
2023-02-28T21:37:11.547Z,22.67
2023-02-28T21:39:38.652Z,23.67
2023-02-28T21:42:05.547Z,27.00
2023-02-28T21:44:33.290Z,27.00
2023-02-28T21:47:01.865Z,24.33
2023-02-28T21:49:29.556Z,24.67
2023-02-28T21:51:57.597Z,21.00
2023-02-28T21:54:24.831Z,25.00
2023-02-28T21:56:52.013Z,24.33
2023-02-28T21:59:19.900Z,26.33
2023-02-28T22:01:49.449Z,22.67
2023-02-28T22:04:18.885Z,21.33
2023-02-28T22:06:45.647Z,28.00
2023-02-28T22:09:12.406Z,26.67
2023-02-28T22:11:39.705Z,26.00
2023-02-28T22:14:11.393Z,24.67
2023-02-28T22:16:50.705Z,27.00
2023-02-28T22:19:21.262Z,20.67
2023-02-28T22:21:49.418Z,22.33
2023-02-28T22:24:16.274Z,25.67
2023-02-28T22:26:43.567Z,22.33
2023-02-28T22:29:10.339Z,26.00
2023-02-28T22:31:37.614Z,24.33
2023-02-28T22:34:16.604Z,24.33
2023-02-28T22:36:45.327Z,21.00
2023-02-28T22:39:12.725Z,23.67
2023-02-28T22:41:40.172Z,24.67
2023-02-28T22:44:07.092Z,28.33
2023-02-28T22:46:36.047Z,25.67
2023-02-28T22:49:05.238Z,23.67
2023-02-28T22:51:32.947Z,23.67
2023-02-28T22:54:01.194Z,23.00
2023-02-28T22:56:30.596Z,27.33
2023-02-28T22:59:00.928Z,25.33
2023-02-28T23:01:30.886Z,30.00
2023-02-28T23:03:58.542Z,27.00
2023-02-28T23:06:30.682Z,26.33
2023-02-28T23:09:03.736Z,26.67
2023-02-28T23:11:34.296Z,22.67
2023-02-28T23:14:01.958Z,24.00
2023-02-28T23:16:33.135Z,26.33
2023-02-28T23:19:03.764Z,20.67
2023-02-28T23:21:31.445Z,26.67
2023-02-28T23:24:03.107Z,24.67
2023-02-28T23:26:31.890Z,27.33
2023-02-28T23:28:59.238Z,27.33
2023-02-28T23:31:26.201Z,25.33
2023-02-28T23:33:53.525Z,26.67
2023-02-28T23:36:20.380Z,31.67
2023-02-28T23:38:50.695Z,24.00
2023-02-28T23:41:21.511Z,25.00
2023-02-28T23:43:48.580Z,30.00
2023-02-28T23:46:16.593Z,22.67
2023-02-28T23:48:44.042Z,22.00
2023-02-28T23:51:14.988Z,26.00
2023-02-28T23:53:44.260Z,26.00
2023-02-28T23:56:15.552Z,29.00
2023-02-28T23:58:45.956Z,22.67
